Time;durP1;ratioP1;P1;durP2;ratioP2;P2;SDS_P1;SDS_P2;PMS_P1;PMS_P2;Temp;Humidity;BMP_temperature;BMP_pressure;BME280_temperature;BME280_humidity;BME280_pressure;Samples;Min_cycle;Max_cycle;Signal;HPM_P1;HPM_P2
2022/05/29 00:01:19;;;;;;;3.38;1.48;;;;;;;16.67;44.52;99716.13;4991808;28;20048;-79
2022/05/29 00:03:47;;;;;;;4.10;1.60;;;;;;;16.68;44.14;99708.91;5018464;28;20049;-79
2022/05/29 00:06:14;;;;;;;3.08;1.63;;;;;;;16.66;44.25;99714.47;5032274;28;20041;-79
2022/05/29 00:08:42;;;;;;;3.00;1.60;;;;;;;16.65;44.40;99720.00;5019382;28;20386;-78
2022/05/29 00:11:11;;;;;;;4.07;1.70;;;;;;;16.65;44.44;99714.63;4996185;28;20057;-81
2022/05/29 00:13:38;;;;;;;4.90;1.58;;;;;;;16.63;44.59;99704.06;5008319;28;20065;-80
2022/05/29 00:16:05;;;;;;;4.93;1.80;;;;;;;16.60;44.43;99706.28;5028257;28;20047;-83
2022/05/29 00:18:32;;;;;;;2.63;1.70;;;;;;;16.61;44.85;99707.94;5029808;28;20046;-83
2022/05/29 00:20:59;;;;;;;4.85;1.80;;;;;;;16.61;45.00;99707.94;5016448;28;20049;-83
2022/05/29 00:23:28;;;;;;;3.38;1.83;;;;;;;16.61;45.24;99713.31;4976503;28;20049;-83
2022/05/29 00:25:55;;;;;;;3.20;1.45;;;;;;;16.60;45.37;99709.81;4999650;28;20400;-81
2022/05/29 00:28:22;;;;;;;3.88;1.77;;;;;;;16.60;45.50;99703.63;5018847;28;20100;-80
2022/05/29 00:30:50;;;;;;;4.35;1.67;;;;;;;16.58;45.55;99705.63;5015063;28;20441;-80
2022/05/29 00:33:16;;;;;;;1.63;1.35;;;;;;;16.57;45.50;99701.28;4990487;28;20051;-80
2022/05/29 00:35:43;;;;;;;7.30;2.10;;;;;;;16.57;45.46;99704.81;5016118;28;20498;-80
2022/05/29 00:38:11;;;;;;;2.72;1.70;;;;;;;16.55;45.39;99711.34;5028793;28;20457;-81
2022/05/29 00:41:17;;;;;;;1.83;1.50;;;;;;;16.50;46.07;99707.34;4998386;28;20053;-80
2022/05/29 00:43:47;;;;;;;4.03;1.60;;;;;;;16.52;45.59;99711.72;4976942;28;20401;-80
2022/05/29 00:46:14;;;;;;;4.88;1.92;;;;;;;16.52;45.65;99707.19;5003520;28;20108;-80
2022/05/29 00:48:41;;;;;;;3.28;1.67;;;;;;;16.49;45.45;99707.53;5017825;28;20052;-80
2022/05/29 00:51:11;;;;;;;3.05;1.88;;;;;;;16.45;45.13;99703.53;5038650;28;20041;-81
2022/05/29 00:53:39;;;;;;;4.35;1.80;;;;;;;16.42;44.88;99693.16;5002345;28;20496;-80
2022/05/29 00:56:08;;;;;;;4.50;1.95;;;;;;;16.40;44.99;99696.00;5008761;28;20049;-80
2022/05/29 00:58:35;;;;;;;2.22;1.92;;;;;;;16.43;45.51;99694.81;4995798;28;20103;-80
2022/05/29 01:01:03;;;;;;;3.72;1.75;;;;;;;16.41;44.92;99692.34;5023178;28;20054;-79
2022/05/29 01:03:30;;;;;;;2.85;1.88;;;;;;;16.44;45.12;99685.78;5010445;28;20046;-79
2022/05/29 01:05:57;;;;;;;2.75;1.77;;;;;;;16.46;44.88;99694.47;5014893;28;20045;-79
2022/05/29 01:08:33;;;;;;;3.42;1.95;;;;;;;16.44;45.38;99683.13;5017694;28;20046;-79
2022/05/29 01:11:10;;;;;;;3.90;1.83;;;;;;;16.46;45.29;99686.44;5007215;28;20054;-79
2022/05/29 01:13:48;;;;;;;5.22;2.28;;;;;;;16.42;45.79;99687.81;4992406;28;20939;-81
2022/05/29 01:16:37;;;;;;;5.32;1.70;;;;;;;16.44;45.40;99683.13;5001588;28;20057;-79
2022/05/29 01:19:09;;;;;;;5.30;1.90;;;;;;;16.43;45.42;99682.25;4970976;28;20048;-79
2022/05/29 01:22:07;;;;;;;2.08;1.45;;;;;;;16.40;45.29;99687.97;5012665;28;20053;-79
2022/05/29 01:24:47;;;;;;;5.53;1.90;;;;;;;16.41;45.37;99683.44;4955997;28;20522;-79
2022/05/29 01:27:38;;;;;;;4.07;1.50;;;;;;;16.33;42.80;99684.31;5002481;28;20041;-79
2022/05/29 01:30:22;;;;;;;6.55;1.73;;;;;;;16.33;42.39;99673.63;4987385;28;20124;-79
2022/05/29 01:33:08;;;;;;;4.82;1.88;;;;;;;16.35;42.82;99670.75;4970413;28;20053;-81
2022/05/29 01:35:46;;;;;;;5.68;1.65;;;;;;;16.37;43.48;99674.94;4999380;28;20065;-83
2022/05/29 01:38:33;;;;;;;4.28;1.67;;;;;;;16.32;42.82;99674.63;5008052;28;20500;-83
2022/05/29 01:41:19;;;;;;;4.70;1.80;;;;;;;16.35;44.94;99676.13;4983844;28;20052;-83
2022/05/29 01:44:08;;;;;;;2.72;1.50;;;;;;;16.36;45.61;99673.28;4988350;28;20405;-83
2022/05/29 01:46:36;;;;;;;3.85;1.88;;;;;;;16.41;45.33;99668.22;4954877;28;20066;-83
2022/05/29 01:49:25;;;;;;;4.30;2.15;;;;;;;16.36;46.88;99667.06;5017516;28;20497;-83
2022/05/29 01:52:02;;;;;;;5.57;2.05;;;;;;;16.37;46.79;99660.72;4985803;28;20501;-82
2022/05/29 01:54:39;;;;;;;6.40;1.83;;;;;;;16.28;45.36;99667.94;5002546;28;20050;-81
2022/05/29 01:57:19;;;;;;;5.07;1.75;;;;;;;16.23;43.85;99659.59;4997648;28;20421;-81
2022/05/29 02:00:06;;;;;;;4.93;2.33;;;;;;;16.24;43.92;99654.09;5018732;28;20057;-81
2022/05/29 02:02:38;;;;;;;4.68;1.52;;;;;;;16.17;44.06;99650.44;4973917;28;20111;-81
2022/05/29 02:05:10;;;;;;;5.15;1.70;;;;;;;16.16;43.81;99651.47;5013067;28;20045;-80
2022/05/29 02:07:48;;;;;;;7.90;1.70;;;;;;;16.09;44.11;99644.31;5008548;28;20104;-81
2022/05/29 02:10:22;;;;;;;5.97;2.00;;;;;;;16.05;43.97;99649.16;5001742;28;20852;-81
2022/05/29 02:12:55;;;;;;;5.75;1.80;;;;;;;16.11;44.52;99648.47;5008735;28;20402;-81
2022/05/29 02:15:28;;;;;;;2.75;1.80;;;;;;;16.05;44.20;99641.13;5018187;28;20053;-83
2022/05/29 02:17:57;;;;;;;7.28;1.90;;;;;;;16.05;43.39;99647.34;5021326;28;20052;-83
2022/05/29 02:20:27;;;;;;;7.22;1.75;;;;;;;15.96;43.94;99650.22;5028830;28;20405;-83
2022/05/29 02:22:58;;;;;;;3.85;1.50;;;;;;;15.72;44.38;99643.13;5020564;28;20469;-82
2022/05/29 02:25:26;;;;;;;5.85;1.70;;;;;;;15.62;44.71;99641.47;4982084;28;20046;-79
2022/05/29 02:28:04;;;;;;;4.95;1.77;;;;;;;15.72;44.89;99645.81;5030601;28;20088;-79
2022/05/29 02:31:21;;;;;;;3.80;1.55;;;;;;;15.79;45.66;99628.88;5002875;28;20620;-84
2022/05/29 02:34:09;;;;;;;6.60;1.85;;;;;;;15.88;45.47;99635.03;4946099;28;20544;-83
2022/05/29 02:36:58;;;;;;;4.55;1.60;;;;;;;15.86;45.83;99636.22;4951734;28;20493;-84
2022/05/29 02:39:50;;;;;;;4.88;1.70;;;;;;;15.93;45.72;99638.03;4989202;28;20052;-80
2022/05/29 02:42:35;;;;;;;5.30;2.42;;;;;;;15.87;45.66;99633.34;4971605;28;20327;-80
2022/05/29 02:45:12;;;;;;;6.03;1.98;;;;;;;15.90;45.11;99629.50;4982322;28;20058;-80
2022/05/29 02:47:48;;;;;;;9.77;1.77;;;;;;;15.95;45.31;99624.44;5018772;28;20066;-80
2022/05/29 02:50:21;;;;;;;5.93;1.98;;;;;;;15.95;45.37;99622.63;5017883;28;20045;-80
2022/05/29 02:52:56;;;;;;;5.28;1.90;;;;;;;15.86;45.03;99626.34;5030011;28;20381;-78
2022/05/29 02:55:24;;;;;;;3.35;1.80;;;;;;;15.86;45.16;99612.13;4988725;28;20038;-78
2022/05/29 02:57:55;;;;;;;6.45;2.20;;;;;;;15.71;45.41;99620.88;5017890;28;20053;-78
2022/05/29 03:00:22;;;;;;;9.00;1.88;;;;;;;15.54;45.07;99614.72;4954609;28;20054;-78
2022/05/29 03:03:23;;;;;;;4.35;1.70;;;;;;;15.59;45.45;99614.22;5010416;28;20137;-78
2022/05/29 03:05:54;;;;;;;2.97;1.48;;;;;;;15.57;45.59;99619.75;4957059;28;20516;-83
2022/05/29 03:08:59;;;;;;;5.47;1.63;;;;;;;15.63;45.70;99618.22;5006782;28;20049;-83
2022/05/29 03:11:40;;;;;;;5.25;1.40;;;;;;;15.65;45.00;99613.53;4909913;28;20636;-83
2022/05/29 03:14:28;;;;;;;3.25;1.40;;;;;;;15.66;45.35;99614.34;4992142;28;20041;-83
2022/05/29 03:17:21;;;;;;;6.72;1.83;;;;;;;15.72;45.00;99609.19;4956765;28;20061;-80
2022/05/29 03:20:22;;;;;;;2.73;1.50;;;;;;;15.76;45.08;99602.47;4985095;28;20516;-80
2022/05/29 03:22:58;;;;;;;4.50;1.73;;;;;;;15.79;45.77;99609.31;4913930;28;20057;-80
2022/05/29 03:25:36;;;;;;;9.35;2.10;;;;;;;15.66;45.40;99607.16;4970577;28;20040;-82
2022/05/29 03:28:09;;;;;;;4.05;1.65;;;;;;;15.72;45.04;99614.53;4999081;28;20116;-82
2022/05/29 03:30:38;;;;;;;4.85;1.80;;;;;;;15.69;44.83;99617.53;4966836;28;20486;-79
2022/05/29 03:33:06;;;;;;;5.72;1.60;;;;;;;15.67;44.97;99616.84;4971453;28;20472;-78
2022/05/29 03:35:36;;;;;;;4.90;2.05;;;;;;;15.58;45.32;99610.69;4990043;28;20107;-78
2022/05/29 03:38:04;;;;;;;6.80;1.85;;;;;;;15.60;45.51;99619.41;5016246;28;20045;-79
2022/05/29 03:40:32;;;;;;;4.03;1.52;;;;;;;15.60;45.15;99608.69;5014101;28;20050;-82
2022/05/29 03:42:59;;;;;;;5.55;1.70;;;;;;;15.60;45.36;99613.22;4967564;28;20049;-82
2022/05/29 03:45:26;;;;;;;3.53;1.55;;;;;;;15.61;46.08;99613.03;4987447;28;20148;-82
2022/05/29 03:47:54;;;;;;;3.10;1.85;;;;;;;15.61;46.68;99609.53;4998595;28;20128;-82
2022/05/29 03:50:29;;;;;;;4.78;1.83;;;;;;;15.57;47.52;99609.03;5015745;28;20038;-81
2022/05/29 03:52:56;;;;;;;5.78;1.75;;;;;;;15.60;45.84;99602.50;4935546;28;20056;-82
2022/05/29 03:55:24;;;;;;;4.20;1.73;;;;;;;15.60;46.16;99599.84;4997220;28;20038;-82
2022/05/29 03:57:51;;;;;;;5.03;1.63;;;;;;;15.57;46.10;99600.16;4985547;28;20094;-81
2022/05/29 04:00:20;;;;;;;5.15;1.95;;;;;;;15.54;45.78;99589.81;5002788;28;20042;-78
2022/05/29 04:02:47;;;;;;;4.13;1.50;;;;;;;15.52;45.65;99589.13;4983522;28;20111;-78
2022/05/29 04:05:19;;;;;;;3.58;1.80;;;;;;;15.54;45.42;99593.31;4998678;28;20041;-78
2022/05/29 04:13:18;;;;;;;4.97;1.40;;;;;;;15.35;45.54;99593.75;5012494;28;20057;-83
2022/05/29 04:15:45;;;;;;;4.20;1.70;;;;;;;15.33;45.44;99593.06;5000346;28;20099;-83
2022/05/29 04:18:18;;;;;;;5.90;1.70;;;;;;;15.07;45.67;99598.66;4996789;28;20049;-82
2022/05/29 04:20:45;;;;;;;6.43;2.17;;;;;;;15.19;46.07;99595.47;4997935;28;20045;-83
2022/05/29 04:23:13;;;;;;;4.18;2.22;;;;;;;14.95;46.46;99595.50;5014626;28;20134;-82
2022/05/29 04:25:42;;;;;;;3.63;1.52;;;;;;;15.02;46.13;99601.84;4983294;28;20075;-82
2022/05/29 04:28:09;;;;;;;4.82;1.55;;;;;;;15.00;46.23;99600.34;5004750;28;20112;-78
2022/05/29 04:30:36;;;;;;;9.77;2.10;;;;;;;14.99;46.49;99596.84;5003018;28;20041;-78
2022/05/29 04:33:03;;;;;;;4.60;1.90;;;;;;;15.27;46.17;99605.31;5004437;28;20069;-80
2022/05/29 04:35:41;;;;;;;11.13;2.05;;;;;;;15.55;45.95;99604.88;4990930;28;20543;-79
2022/05/29 04:38:09;;;;;;;5.80;1.60;;;;;;;15.80;45.46;99597.59;4984269;28;20046;-79
2022/05/29 04:40:38;;;;;;;9.00;2.08;;;;;;;15.95;45.33;99603.88;4993776;28;20496;-79
2022/05/29 04:43:05;;;;;;;7.78;1.92;;;;;;;15.97;45.07;99595.66;5005221;28;20045;-79
2022/05/29 04:45:33;;;;;;;6.38;1.80;;;;;;;15.78;45.00;99597.75;5003042;28;20180;-79
2022/05/29 04:48:00;;;;;;;5.47;2.00;;;;;;;15.84;44.68;99590.88;4997548;28;20552;-79
2022/05/29 04:50:26;;;;;;;7.57;2.35;;;;;;;15.72;44.86;99605.66;5009949;28;20050;-79
2022/05/29 04:52:53;;;;;;;4.97;1.67;;;;;;;15.59;44.44;99598.97;5018981;28;20564;-79
2022/05/29 04:55:20;;;;;;;4.82;1.85;;;;;;;15.44;44.83;99607.91;4998353;28;20038;-79
2022/05/29 04:57:47;;;;;;;10.82;2.25;;;;;;;15.38;45.66;99604.09;4990893;28;20455;-79
2022/05/29 05:00:14;;;;;;;10.88;1.95;;;;;;;15.32;45.42;99604.78;5012395;28;20045;-79
2022/05/29 05:02:41;;;;;;;6.40;1.92;;;;;;;15.27;45.30;99594.59;4982817;28;20046;-80
2022/05/29 05:05:09;;;;;;;6.43;1.88;;;;;;;15.09;45.79;99608.19;4983188;28;20045;-80
2022/05/29 05:07:35;;;;;;;6.80;2.10;;;;;;;14.91;46.06;99605.72;5000510;28;20048;-80
2022/05/29 05:10:04;;;;;;;4.85;1.80;;;;;;;15.02;45.43;99601.00;4988794;28;20111;-80
2022/05/29 05:12:31;;;;;;;7.97;1.70;;;;;;;14.97;45.96;99598.84;4991098;28;20041;-80
2022/05/29 05:14:58;;;;;;;8.65;1.80;;;;;;;15.07;46.09;99596.81;5004069;28;20042;-80
2022/05/29 05:17:25;;;;;;;7.97;1.75;;;;;;;15.19;45.51;99599.97;5000833;28;20144;-80
2022/05/29 05:19:52;;;;;;;5.82;1.83;;;;;;;15.04;45.52;99594.50;5013940;28;20042;-80
2022/05/29 05:22:19;;;;;;;5.22;1.63;;;;;;;15.09;45.99;99602.84;4983706;28;20452;-80
2022/05/29 05:24:46;;;;;;;6.90;2.42;;;;;;;15.07;46.46;99594.16;5010370;28;20046;-80
2022/05/29 05:27:12;;;;;;;8.23;1.90;;;;;;;14.97;46.30;99588.97;5002389;28;20073;-80
2022/05/29 05:29:42;;;;;;;4.82;2.13;;;;;;;14.98;46.70;99590.66;4984241;28;20048;-80
2022/05/29 05:32:09;;;;;;;9.63;2.25;;;;;;;15.12;46.36;99599.00;5011615;28;20417;-80
2022/05/29 05:34:36;;;;;;;7.40;1.90;;;;;;;14.97;46.45;99594.31;5013947;28;20107;-79
2022/05/29 05:37:03;;;;;;;6.05;1.88;;;;;;;14.95;46.73;99598.19;5002977;28;20041;-79
2022/05/29 05:39:32;;;;;;;7.63;2.17;;;;;;;15.03;47.06;99594.66;4964522;28;20115;-83
2022/05/29 05:41:58;;;;;;;5.10;1.67;;;;;;;15.17;47.00;99596.63;4995565;28;20058;-83
2022/05/29 05:44:25;;;;;;;7.22;1.90;;;;;;;15.06;46.90;99613.88;5012476;28;20418;-83
2022/05/29 05:46:53;;;;;;;5.50;2.10;;;;;;;15.09;46.82;99599.34;5016677;28;20124;-83
2022/05/29 05:49:26;;;;;;;7.18;1.98;;;;;;;15.24;46.57;99594.09;4966509;28;20050;-83
2022/05/29 05:51:55;;;;;;;5.53;1.83;;;;;;;15.27;46.32;99602.63;5005578;28;20053;-81
2022/05/29 05:54:21;;;;;;;4.68;1.58;;;;;;;14.98;46.62;99608.53;5012815;28;20659;-83
2022/05/29 05:56:51;;;;;;;6.30;1.90;;;;;;;14.84;46.73;99604.72;5015899;28;20049;-80
2022/05/29 05:59:18;;;;;;;5.80;1.80;;;;;;;14.74;46.90;99617.41;4998269;28;20037;-80
2022/05/29 06:01:44;;;;;;;4.70;2.08;;;;;;;14.62;47.11;99606.22;4995764;28;20454;-79
2022/05/29 06:04:12;;;;;;;8.95;2.75;;;;;;;14.37;48.02;99605.34;4983851;28;20041;-84
2022/05/29 06:06:39;;;;;;;10.40;2.50;;;;;;;14.22;49.07;99618.53;4994280;28;20041;-85
2022/05/29 06:09:05;;;;;;;7.85;2.58;;;;;;;13.98;48.96;99616.63;4983962;28;20041;-84
2022/05/29 06:11:33;;;;;;;8.27;2.40;;;;;;;13.96;49.25;99617.81;5002065;28;20140;-84
2022/05/29 06:14:00;;;;;;;9.15;2.00;;;;;;;13.81;49.82;99618.41;4992837;28;20053;-84
2022/05/29 06:16:27;;;;;;;9.35;2.75;;;;;;;13.91;49.64;99612.94;4998991;28;20049;-83
2022/05/29 06:18:54;;;;;;;7.25;2.00;;;;;;;13.86;49.80;99628.59;5019228;28;20409;-84
2022/05/29 06:21:21;;;;;;;9.60;2.60;;;;;;;13.81;49.85;99626.41;4982111;28;20042;-84
2022/05/29 06:23:49;;;;;;;5.30;2.00;;;;;;;13.78;50.56;99631.25;4995673;28;20149;-83
2022/05/29 06:26:15;;;;;;;9.88;2.42;;;;;;;13.77;51.24;99627.75;5001492;28;20072;-83
2022/05/29 06:28:42;;;;;;;9.40;2.05;;;;;;;13.86;51.05;99620.59;4998071;28;20042;-83
2022/05/29 06:31:11;;;;;;;8.18;2.30;;;;;;;13.85;51.50;99633.13;4981306;28;20076;-81
2022/05/29 06:33:38;;;;;;;5.60;2.22;;;;;;;13.90;51.46;99633.47;4993776;28;20455;-83
2022/05/29 06:36:09;;;;;;;5.57;1.85;;;;;;;14.10;51.17;99626.00;5004294;28;20041;-83
2022/05/29 06:38:36;;;;;;;6.63;2.17;;;;;;;13.89;51.48;99622.94;4983547;28;20046;-82
2022/05/29 06:41:07;;;;;;;6.70;1.90;;;;;;;13.71;52.76;99624.88;5012343;28;20108;-84
2022/05/29 06:43:34;;;;;;;7.82;2.35;;;;;;;13.75;52.22;99635.09;5007369;28;20532;-83
2022/05/29 06:46:03;;;;;;;5.57;1.95;;;;;;;13.84;52.34;99634.13;4997503;28;20049;-81
2022/05/29 06:48:32;;;;;;;4.95;1.85;;;;;;;13.92;52.52;99629.78;5016709;28;20485;-83
2022/05/29 06:51:06;;;;;;;7.82;2.40;;;;;;;13.96;52.55;99637.31;5002654;28;20046;-83
2022/05/29 06:53:33;;;;;;;5.40;1.92;;;;;;;13.93;52.03;99636.81;4978311;28;20079;-82
2022/05/29 06:56:00;;;;;;;13.65;2.22;;;;;;;14.14;51.62;99636.38;4983383;28;20065;-82
2022/05/29 06:58:27;;;;;;;10.35;2.33;;;;;;;14.15;51.24;99640.72;5016514;28;20053;-83
2022/05/29 07:09:11;;;;;;;9.85;2.83;;;;;;;14.22;51.44;99649.72;5006838;28;20405;-79
2022/05/29 07:11:41;;;;;;;4.80;2.00;;;;;;;14.16;51.24;99653.06;5012217;28;20053;-79
2022/05/29 07:14:07;;;;;;;7.75;2.38;;;;;;;14.24;50.89;99643.22;5010307;28;20096;-80
2022/05/29 07:16:35;;;;;;;8.55;1.98;;;;;;;14.28;50.87;99649.91;4989001;28;20060;-79
2022/05/29 07:19:02;;;;;;;7.55;1.77;;;;;;;14.06;51.34;99659.38;5001912;28;20409;-79
2022/05/29 07:21:31;;;;;;;12.55;2.60;;;;;;;14.05;51.52;99667.56;4997144;28;20054;-83
2022/05/29 07:23:57;;;;;;;3.40;1.70;;;;;;;13.81;51.49;99655.78;5015131;28;20065;-84
2022/05/29 07:26:25;;;;;;;7.90;2.33;;;;;;;13.78;51.87;99658.78;4992604;28;20513;-83
2022/05/29 07:28:52;;;;;;;5.30;1.90;;;;;;;13.92;51.58;99659.16;4998578;28;20053;-84
2022/05/29 07:31:19;;;;;;;11.57;2.35;;;;;;;13.95;51.79;99664.19;4983750;28;20049;-83
2022/05/29 07:33:46;;;;;;;9.88;2.08;;;;;;;13.99;51.95;99662.84;4993444;28;20049;-84
2022/05/29 07:36:13;;;;;;;5.30;1.98;;;;;;;13.93;51.66;99675.00;4995444;28;20099;-84
2022/05/29 07:38:40;;;;;;;6.80;2.22;;;;;;;13.79;51.87;99671.13;5014856;28;20489;-83
2022/05/29 07:43:56;;;;;;;8.27;2.60;;;;;;;13.68;51.76;99663.41;4975589;28;20033;-80
2022/05/29 07:46:22;;;;;;;6.25;1.95;;;;;;;13.71;51.54;99656.91;4993703;28;20045;-80
2022/05/29 07:48:55;;;;;;;7.05;1.92;;;;;;;13.70;51.98;99666.75;5000745;28;20149;-79
2022/05/29 07:51:22;;;;;;;8.10;2.58;;;;;;;13.75;51.84;99671.63;5019764;28;20489;-80
2022/05/29 07:53:48;;;;;;;6.13;1.95;;;;;;;13.70;52.10;99664.09;5013818;28;20181;-80
2022/05/29 07:56:19;;;;;;;5.60;1.92;;;;;;;13.50;52.50;99674.16;4979132;28;20041;-80
2022/05/29 07:58:46;;;;;;;10.80;2.17;;;;;;;13.35;52.61;99695.22;5007415;28;20107;-80
2022/05/29 08:01:13;;;;;;;10.38;2.67;;;;;;;13.31;52.24;99671.72;4991775;28;20493;-82
2022/05/29 08:03:40;;;;;;;8.85;2.17;;;;;;;13.33;52.61;99675.03;4985988;28;20448;-80
2022/05/29 08:06:08;;;;;;;8.23;2.05;;;;;;;13.43;52.03;99675.78;5002529;28;20053;-80
2022/05/29 08:08:35;;;;;;;4.95;1.92;;;;;;;13.62;52.07;99678.22;5000819;28;20045;-80
2022/05/29 08:11:02;;;;;;;4.22;2.20;;;;;;;13.80;51.55;99677.31;5002790;28;20133;-82
2022/05/29 08:13:31;;;;;;;8.18;2.00;;;;;;;13.86;50.81;99673.97;4993108;28;20098;-82
2022/05/29 08:15:58;;;;;;;4.90;1.90;;;;;;;13.77;51.84;99677.63;4997384;28;20583;-80
2022/05/29 08:18:25;;;;;;;4.85;2.00;;;;;;;13.65;52.11;99672.56;5002676;28;20049;-80
2022/05/29 08:20:52;;;;;;;8.85;2.13;;;;;;;13.60;53.17;99671.38;5013081;28;20038;-79
2022/05/29 08:23:23;;;;;;;7.00;2.30;;;;;;;13.52;53.72;99668.66;4979911;28;20050;-80
2022/05/29 08:31:24;;;;;;;7.00;2.20;;;;;;;13.79;53.93;99672.94;4977174;28;20548;-78
2022/05/29 08:33:52;;;;;;;9.77;3.00;;;;;;;13.89;53.56;99663.84;4984492;28;20174;-79
2022/05/29 08:36:24;;;;;;;7.00;2.75;;;;;;;13.92;55.00;99664.50;4985394;28;20072;-80
2022/05/29 08:38:55;;;;;;;8.75;2.28;;;;;;;14.01;54.14;99667.03;5002142;28;20046;-79
2022/05/29 08:41:25;;;;;;;10.10;2.65;;;;;;;14.16;53.83;99666.41;5001705;28;20398;-79
2022/05/29 08:44:00;;;;;;;7.10;2.67;;;;;;;14.15;53.68;99664.75;4970195;28;20046;-78
2022/05/29 08:46:37;;;;;;;4.13;2.30;;;;;;;14.18;52.57;99669.75;4982622;28;20057;-77
2022/05/29 08:49:05;;;;;;;6.93;1.77;;;;;;;14.19;52.38;99661.56;4969024;28;20133;-75
2022/05/29 08:51:51;;;;;;;12.23;2.20;;;;;;;14.06;53.33;99670.03;4969960;28;20058;-79
2022/05/29 08:54:37;;;;;;;7.82;2.10;;;;;;;14.08;53.69;99659.22;4965993;28;20050;-80
2022/05/29 08:57:18;;;;;;;8.13;2.08;;;;;;;14.05;53.95;99654.22;4983167;28;20049;-81
2022/05/29 08:59:48;;;;;;;11.80;2.30;;;;;;;14.24;53.35;99653.91;4969062;28;20460;-80
2022/05/29 09:02:49;;;;;;;8.10;2.10;;;;;;;14.35;54.75;99655.44;4998648;28;20543;-81
2022/05/29 09:05:35;;;;;;;9.60;2.22;;;;;;;14.58;54.63;99654.81;4936279;28;20498;-80
2022/05/29 09:08:16;;;;;;;4.68;1.98;;;;;;;14.70;54.96;99650.81;4976654;28;20088;-79
2022/05/29 09:10:48;;;;;;;9.02;2.20;;;;;;;14.86;54.81;99647.34;4994713;28;20057;-78
2022/05/29 09:13:24;;;;;;;4.97;2.10;;;;;;;14.89;54.59;99653.16;4993590;28;20420;-79
2022/05/29 09:15:55;;;;;;;7.38;2.60;;;;;;;14.99;54.10;99644.97;4996515;28;20050;-79
2022/05/29 09:18:27;;;;;;;3.42;2.08;;;;;;;15.06;54.30;99647.78;4998018;28;20046;-78
2022/05/29 09:20:59;;;;;;;4.75;2.20;;;;;;;15.12;54.75;99645.28;5008490;28;20041;-77
2022/05/29 09:23:31;;;;;;;7.00;1.93;;;;;;;15.17;53.15;99647.47;5007728;28;20103;-80
2022/05/29 09:25:58;;;;;;;6.28;2.00;;;;;;;15.23;51.66;99645.94;5010286;28;20041;-77
2022/05/29 09:28:35;;;;;;;8.60;1.98;;;;;;;15.23;51.71;99641.41;4989455;28;20088;-78
2022/05/29 09:31:06;;;;;;;5.05;1.60;;;;;;;15.26;52.20;99648.25;4952165;28;20422;-81
2022/05/29 09:33:35;;;;;;;5.88;1.70;;;;;;;15.29;51.60;99646.09;4958469;28;20062;-78
2022/05/29 09:36:36;;;;;;;4.38;1.50;;;;;;;15.26;53.57;99646.41;4963613;28;20056;-78
2022/05/29 09:39:08;;;;;;;9.88;2.53;;;;;;;15.34;53.92;99646.41;4911594;28;20487;-77
2022/05/29 09:41:49;;;;;;;6.88;2.28;;;;;;;15.32;53.68;99643.06;4949650;28;20612;-77
2022/05/29 09:44:18;;;;;;;5.93;1.85;;;;;;;15.43;53.40;99649.06;4939137;28;20487;-77
2022/05/29 09:46:47;;;;;;;4.05;1.75;;;;;;;15.44;53.49;99646.19;4966893;28;20042;-77
2022/05/29 09:52:14;;;;;;;6.00;2.20;;;;;;;15.52;53.44;99642.66;4923419;28;20050;-77
2022/05/29 09:54:53;;;;;;;5.15;2.00;;;;;;;15.52;52.92;99634.63;4948077;28;20055;-77
2022/05/29 09:57:27;;;;;;;3.45;1.92;;;;;;;15.53;52.83;99625.63;4951645;28;20065;-77
2022/05/29 10:00:06;;;;;;;3.17;1.48;;;;;;;15.53;54.06;99629.13;4964140;28;20163;-78
2022/05/29 10:02:39;;;;;;;5.05;2.15;;;;;;;15.65;54.41;99634.94;4932998;28;20072;-79
2022/05/29 10:05:09;;;;;;;4.57;1.77;;;;;;;15.65;54.18;99629.59;5009810;28;20042;-78
2022/05/29 10:07:44;;;;;;;5.15;1.98;;;;;;;15.69;53.00;99632.75;5018334;28;20050;-77
2022/05/29 10:10:14;;;;;;;5.07;1.95;;;;;;;15.62;53.51;99632.59;4984124;28;20042;-79
2022/05/29 10:12:47;;;;;;;4.45;1.88;;;;;;;15.58;54.01;99631.28;4989975;28;20750;-77
2022/05/29 10:15:25;;;;;;;6.00;2.10;;;;;;;15.57;53.64;99629.59;4987670;28;20602;-77
2022/05/29 10:18:05;;;;;;;2.85;1.77;;;;;;;15.46;52.83;99630.81;4983448;28;20041;-77
2022/05/29 10:20:37;;;;;;;4.13;2.03;;;;;;;15.46;53.17;99620.09;4979072;28;20060;-79
2022/05/29 10:23:08;;;;;;;5.32;1.60;;;;;;;15.46;53.77;99620.09;4994864;28;20037;-78
2022/05/29 10:25:56;;;;;;;7.82;2.22;;;;;;;15.50;54.18;99618.78;4992731;28;20097;-80
2022/05/29 10:28:30;;;;;;;5.68;1.90;;;;;;;15.52;54.65;99613.22;4986723;28;20071;-77
2022/05/29 10:31:02;;;;;;;5.95;1.92;;;;;;;15.55;54.85;99619.09;4999450;28;20049;-79
2022/05/29 10:33:32;;;;;;;5.93;2.33;;;;;;;15.59;54.29;99622.25;4994804;28;20100;-78
2022/05/29 10:36:17;;;;;;;3.67;1.92;;;;;;;15.55;55.24;99611.06;4998691;28;20038;-77
2022/05/29 10:38:44;;;;;;;5.32;1.90;;;;;;;15.59;54.01;99607.00;4967920;28;20042;-78
2022/05/29 10:41:12;;;;;;;3.45;2.05;;;;;;;15.63;53.97;99605.66;5012601;28;20478;-77
2022/05/29 10:43:45;;;;;;;5.93;3.42;;;;;;;15.68;53.99;99604.31;4999120;28;20507;-77
2022/05/29 10:46:18;;;;;;;4.78;3.30;;;;;;;15.70;54.58;99608.53;4993992;28;20052;-78
2022/05/29 10:48:48;;;;;;;8.65;3.15;;;;;;;15.74;54.03;99603.63;4988577;28;20052;-80
2022/05/29 10:51:23;;;;;;;11.52;3.55;;;;;;;15.73;53.26;99602.81;5019947;28;20061;-80
2022/05/29 10:53:59;;;;;;;11.77;4.68;;;;;;;15.77;53.13;99596.13;5018631;28;20413;-81
2022/05/29 10:56:35;;;;;;;14.75;6.82;;;;;;;15.86;53.19;99590.72;4954943;28;20045;-81
2022/05/29 10:59:17;;;;;;;33.42;19.75;;;;;;;15.85;53.62;99573.81;5013874;28;20477;-81
2022/05/29 11:05:11;;;;;;;10.68;5.18;;;;;;;15.90;52.55;99589.31;4972739;28;20057;-81
2022/05/29 11:07:46;;;;;;;9.23;2.28;;;;;;;15.99;52.34;99580.25;4967964;28;20049;-83
2022/05/29 11:10:15;;;;;;;9.85;4.63;;;;;;;16.01;51.56;99580.91;4981671;28;20128;-83
2022/05/29 11:13:09;;;;;;;13.35;10.10;;;;;;;16.03;51.94;99577.03;5007843;28;20138;-82
2022/05/29 11:15:39;;;;;;;7.03;4.38;;;;;;;16.11;51.64;99569.97;4982256;28;20053;-83
2022/05/29 11:18:40;;;;;;;4.07;2.25;;;;;;;16.10;50.75;99566.44;5001805;28;20046;-83
2022/05/29 11:21:39;;;;;;;5.03;1.95;;;;;;;16.13;50.46;99562.56;4946661;28;20042;-82
2022/05/29 11:24:14;;;;;;;2.92;2.00;;;;;;;16.18;50.37;99561.03;4957592;28;20072;-82
2022/05/29 11:26:56;;;;;;;6.43;2.05;;;;;;;16.35;50.43;99550.19;4995120;28;20041;-82
2022/05/29 11:29:46;;;;;;;7.13;1.92;;;;;;;16.33;49.42;99547.69;4987296;28;20374;-82
2022/05/29 11:32:53;;;;;;;5.82;2.17;;;;;;;16.39;47.91;99546.16;4967637;28;20042;-84
2022/05/29 11:35:38;;;;;;;8.27;1.90;;;;;;;16.46;48.73;99545.25;4929197;28;20054;-83
2022/05/29 11:38:20;;;;;;;4.90;1.70;;;;;;;16.53;48.65;99537.28;4976127;28;20046;-80
2022/05/29 11:40:51;;;;;;;5.15;1.85;;;;;;;16.61;48.47;99534.56;4953166;28;20554;-79
2022/05/29 11:43:27;;;;;;;3.83;1.83;;;;;;;16.69;48.37;99529.09;4997967;28;20069;-79
2022/05/29 11:52:02;;;;;;;7.18;2.10;;;;;;;16.62;46.81;99522.81;4949987;28;20060;-77
2022/05/29 11:55:08;;;;;;;3.40;1.60;;;;;;;16.56;46.54;99523.50;5004965;28;20057;-77
2022/05/29 11:58:03;;;;;;;6.15;2.08;;;;;;;16.63;46.45;99516.41;4971239;28;20064;-77
2022/05/29 12:00:57;;;;;;;7.10;2.10;;;;;;;16.64;47.34;99507.38;4987302;28;20045;-75
2022/05/29 12:03:47;;;;;;;6.47;1.75;;;;;;;16.67;47.10;99509.69;4947007;28;20057;-76
2022/05/29 12:06:30;;;;;;;3.15;1.70;;;;;;;16.68;47.33;99515.88;4982685;28;20498;-79
2022/05/29 12:08:58;;;;;;;4.88;1.80;;;;;;;16.75;47.25;99516.00;4995335;28;20065;-82
2022/05/29 12:11:50;;;;;;;4.00;1.80;;;;;;;16.65;45.95;99516.25;5003759;28;20796;-81
2022/05/29 12:14:23;;;;;;;9.25;2.28;;;;;;;16.63;45.83;99534.34;4964012;28;20401;-81
2022/05/29 12:17:29;;;;;;;5.85;1.90;;;;;;;16.41;45.42;99536.06;4956876;28;20046;-81
2022/05/29 12:19:58;;;;;;;4.07;1.40;;;;;;;16.06;44.41;99547.22;4942275;28;20053;-80
2022/05/29 12:22:35;;;;;;;7.60;1.83;;;;;;;15.98;45.66;99549.13;5003423;28;20174;-81
2022/05/29 12:25:03;;;;;;;8.77;2.03;;;;;;;15.93;46.63;99556.88;5020373;28;20100;-81
2022/05/29 12:27:29;;;;;;;7.57;1.60;;;;;;;15.88;46.62;99551.22;4997675;28;20049;-81
2022/05/29 12:30:05;;;;;;;6.10;1.50;;;;;;;15.73;46.42;99559.16;5017318;28;20049;-78
2022/05/29 12:32:35;;;;;;;7.20;1.60;;;;;;;15.68;46.89;99566.84;4991395;28;20050;-75
2022/05/29 12:35:18;;;;;;;4.13;1.52;;;;;;;15.52;47.49;99552.53;5023620;28;20144;-75